createdAt,value
2019-04-05T00:00:34.405Z,44.96
2019-04-05T00:03:06.604Z,44.93
2019-04-05T00:05:37.912Z,45.18
2019-04-05T00:08:10.032Z,47.06
2019-04-05T00:10:41.132Z,45.52
2019-04-05T00:13:13.420Z,47.82
2019-04-05T00:15:46.612Z,46.25
2019-04-05T00:18:18.652Z,46.68
2019-04-05T00:20:50.841Z,46.99
2019-04-05T00:23:22.131Z,47.14
2019-04-05T00:25:54.121Z,49.82
2019-04-05T00:28:25.300Z,47.41
2019-04-05T00:30:57.372Z,49.33
2019-04-05T00:33:29.322Z,47.71
2019-04-05T00:36:01.452Z,47.89
2019-04-05T00:38:33.593Z,47.85
2019-04-05T00:41:05.793Z,48.00
2019-04-05T00:43:36.860Z,48.03
2019-04-05T00:46:08.684Z,49.83
2019-04-05T00:48:40.782Z,48.04
2019-04-05T00:51:13.132Z,48.16
2019-04-05T00:53:45.585Z,48.23
2019-04-05T00:56:17.712Z,48.23
2019-04-05T00:58:49.983Z,48.09
2019-04-05T01:01:21.110Z,47.93
2019-04-05T01:03:52.882Z,49.19
2019-04-05T01:06:25.172Z,47.94
2019-04-05T01:08:56.220Z,47.82
2019-04-05T01:11:28.572Z,50.01
2019-04-05T01:13:59.771Z,47.91
2019-04-05T01:16:31.752Z,50.00
2019-04-05T01:19:04.176Z,47.99
2019-04-05T01:21:40.881Z,49.91
2019-04-05T01:24:13.992Z,48.22
2019-04-05T01:26:47.435Z,48.26
2019-04-05T01:29:21.003Z,48.49
2019-04-05T01:31:53.482Z,48.54
2019-04-05T01:34:25.891Z,48.66
2019-04-05T01:36:58.252Z,48.36
2019-04-05T01:39:31.323Z,48.28
2019-04-05T01:42:03.783Z,48.19
2019-04-05T01:44:38.345Z,48.10
2019-04-05T01:47:10.391Z,47.95
2019-04-05T01:49:42.632Z,47.98
2019-04-05T01:52:13.841Z,47.84
2019-04-05T01:54:45.934Z,49.26
2019-04-05T01:57:17.180Z,47.90
2019-04-05T01:59:49.234Z,49.33
2019-04-05T02:02:21.232Z,47.97
2019-04-05T02:04:53.442Z,48.26
2019-04-05T02:07:24.624Z,48.14
2019-04-05T02:10:00.082Z,50.28
2019-04-05T02:12:32.281Z,48.84
2019-04-05T02:15:05.074Z,48.98
2019-04-05T02:17:38.179Z,49.32
2019-04-05T02:20:09.520Z,49.83
2019-04-05T02:22:41.353Z,52.22
2019-04-05T02:25:13.742Z,50.11
2019-04-05T02:27:44.820Z,50.35
2019-04-05T02:30:17.262Z,53.57
2019-04-05T02:32:49.971Z,50.88
2019-04-05T02:35:22.327Z,50.86
2019-04-05T02:37:53.350Z,50.62
2019-04-05T02:40:26.991Z,53.39
2019-04-05T02:43:01.513Z,50.91
2019-04-05T02:45:36.346Z,51.14
2019-04-05T02:48:11.381Z,51.46
2019-04-05T02:50:46.861Z,51.50
2019-04-05T02:53:20.735Z,52.05
2019-04-05T02:55:53.395Z,52.20
2019-04-05T02:58:26.022Z,52.58
2019-04-05T03:00:59.017Z,52.70
2019-04-05T03:03:31.321Z,52.91
2019-04-05T03:06:04.788Z,52.80
2019-04-05T03:08:37.493Z,52.85
2019-04-05T03:11:13.789Z,52.76
2019-04-05T03:13:51.321Z,53.05
2019-04-05T03:16:40.418Z,53.66
2019-04-05T03:19:07.158Z,53.25
2019-04-05T03:21:43.425Z,53.33
2019-04-05T03:24:19.737Z,53.30
2019-04-05T03:27:07.222Z,53.51
2019-04-05T03:29:39.604Z,53.54
2019-04-05T03:32:12.047Z,53.73
2019-04-05T03:34:45.585Z,53.71
2019-04-05T03:37:18.441Z,53.57
2019-04-05T03:39:50.745Z,53.00
2019-04-05T03:42:22.112Z,53.07
2019-04-05T03:44:54.392Z,56.63
2019-04-05T03:47:26.583Z,52.89
2019-04-05T03:53:29.801Z,53.65
2019-04-05T03:56:00.928Z,53.64
2019-04-05T03:58:32.772Z,57.09
2019-04-05T04:01:04.888Z,53.45
2019-04-05T04:03:37.150Z,53.41
2019-04-05T04:06:09.289Z,53.49
2019-04-05T04:08:40.428Z,53.93
2019-04-05T04:11:12.727Z,57.38
2019-04-05T04:13:44.961Z,54.19
2019-04-05T04:16:17.279Z,54.40
2019-04-05T04:18:48.341Z,54.19
2019-04-05T04:21:51.350Z,58.06
2019-04-05T04:24:23.518Z,53.91
2019-04-05T04:26:55.554Z,53.48
2019-04-05T04:29:26.810Z,53.58
2019-04-05T04:31:58.731Z,56.84
2019-04-05T04:34:29.879Z,53.27
2019-04-05T04:37:02.069Z,56.74
2019-04-05T04:39:34.283Z,52.90
2019-04-05T04:42:07.041Z,52.74
2019-04-05T04:44:39.272Z,52.81
2019-04-05T04:47:25.072Z,52.49
2019-04-05T04:49:45.843Z,52.30
2019-04-05T04:52:18.652Z,52.06
2019-04-05T04:54:50.703Z,52.06
2019-04-05T04:57:22.661Z,52.03
2019-04-05T04:59:54.968Z,51.83
2019-04-05T05:02:26.389Z,51.66
2019-04-05T05:04:58.889Z,54.14
2019-04-05T05:07:31.468Z,51.32
2019-04-05T05:10:03.417Z,51.19
2019-04-05T05:12:36.728Z,53.96
2019-04-05T05:15:07.699Z,50.87
2019-04-05T05:17:39.771Z,53.50
2019-04-05T05:20:10.979Z,50.52
2019-04-05T05:22:43.221Z,53.48
2019-04-05T05:25:15.470Z,50.16
2019-04-05T05:27:47.999Z,49.95
2019-04-05T05:30:20.151Z,49.75
2019-04-05T05:32:52.462Z,49.43
2019-04-05T05:35:24.710Z,49.13
2019-04-05T05:37:55.779Z,49.13
2019-04-05T05:40:35.098Z,51.33
2019-04-05T05:43:04.050Z,48.62
2019-04-05T05:45:35.180Z,48.30
2019-04-05T05:48:07.281Z,49.77
2019-04-05T05:50:39.444Z,47.91
2019-04-05T05:53:11.591Z,47.81
2019-04-05T05:55:42.622Z,47.69
2019-04-05T05:58:14.514Z,50.58
2019-04-05T06:00:47.472Z,47.02
2019-04-05T06:03:19.491Z,46.34
2019-04-05T06:06:03.578Z,46.05
2019-04-05T06:08:25.411Z,45.14
2019-04-05T06:10:56.485Z,44.50
2019-04-05T06:13:28.311Z,45.85
2019-04-05T06:16:00.499Z,43.58
2019-04-05T06:18:31.629Z,43.16
2019-04-05T06:21:03.667Z,43.05
2019-04-05T06:23:35.919Z,42.60
2019-04-05T06:26:06.983Z,42.38
2019-04-05T06:28:39.069Z,42.32
2019-04-05T06:31:11.178Z,41.79
2019-04-05T06:33:43.812Z,41.40
2019-04-05T06:36:15.760Z,40.83
2019-04-05T06:38:48.451Z,40.76
2019-04-05T06:41:20.618Z,40.76
2019-04-05T06:43:51.574Z,40.42
2019-04-05T06:46:23.504Z,38.91
2019-04-05T06:48:54.657Z,40.40
2019-04-05T06:51:26.514Z,38.56
2019-04-05T06:53:59.069Z,40.48
2019-04-05T06:56:31.023Z,40.18
2019-04-05T06:59:03.173Z,39.81
2019-04-05T07:01:35.408Z,39.49
2019-04-05T07:04:06.412Z,38.80
2019-04-05T07:06:38.261Z,38.80
2019-04-05T07:09:10.399Z,38.02
2019-04-05T07:11:41.449Z,37.41
2019-04-05T07:14:14.334Z,37.28
2019-04-05T07:16:45.229Z,35.15
2019-04-05T07:19:17.140Z,36.26
2019-04-05T07:21:48.501Z,36.85
2019-04-05T07:24:20.213Z,36.26
2019-04-05T07:26:52.490Z,36.85
2019-04-05T07:29:23.501Z,36.50
2019-04-05T07:31:55.372Z,35.82
2019-04-05T07:34:27.772Z,35.56
2019-04-05T07:37:00.440Z,35.46
2019-04-05T07:39:32.426Z,35.57
2019-04-05T07:42:04.681Z,35.00
2019-04-05T07:44:35.589Z,34.78
2019-04-05T07:47:07.330Z,32.64
2019-04-05T07:49:39.401Z,33.85
2019-04-05T07:52:13.024Z,34.18
2019-04-05T07:54:45.351Z,32.93
2019-04-05T07:57:16.419Z,33.38
2019-04-05T07:59:48.221Z,32.03
2019-04-05T08:02:20.321Z,33.31
2019-04-05T08:04:54.639Z,33.39
2019-04-05T08:07:29.608Z,33.18
2019-04-05T08:10:03.183Z,32.58
2019-04-05T08:12:35.953Z,32.63
2019-04-05T08:15:09.500Z,32.43
2019-04-05T08:17:41.488Z,31.68
2019-04-05T08:20:13.749Z,31.78
2019-04-05T08:22:44.632Z,31.82
2019-04-05T08:25:16.544Z,29.25
2019-04-05T08:27:48.701Z,31.94
2019-04-05T08:30:19.819Z,31.12
2019-04-05T08:32:51.729Z,29.66
2019-04-05T08:35:23.698Z,30.74
2019-04-05T08:37:55.721Z,30.66
2019-04-05T08:40:27.760Z,30.67
2019-04-05T08:42:59.828Z,29.49
2019-04-05T08:45:31.729Z,29.59
2019-04-05T08:48:03.839Z,29.48
2019-04-05T08:50:35.995Z,29.22
2019-04-05T08:53:09.659Z,27.97
2019-04-05T08:55:40.779Z,28.54
2019-04-05T08:58:12.672Z,26.28
2019-04-05T09:00:44.686Z,28.86
2019-04-05T09:03:16.761Z,28.17
2019-04-05T09:05:49.424Z,28.24
2019-04-05T09:08:21.549Z,28.27
2019-04-05T09:10:54.710Z,25.50
2019-04-05T09:13:26.850Z,27.27
2019-04-05T09:15:57.839Z,26.70
2019-04-05T09:18:29.940Z,24.11
2019-04-05T09:21:02.069Z,27.23
2019-04-05T09:23:33.199Z,27.43
2019-04-05T09:26:05.541Z,25.38
2019-04-05T09:28:37.508Z,26.65
2019-04-05T09:31:09.839Z,26.44
2019-04-05T09:33:41.888Z,23.93
2019-04-05T09:36:13.801Z,26.49
2019-04-05T09:38:45.900Z,26.37
2019-04-05T09:41:16.990Z,25.95
2019-04-05T09:43:49.249Z,23.92
2019-04-05T09:46:21.323Z,25.96
2019-04-05T09:48:53.498Z,25.72
2019-04-05T09:51:25.388Z,26.12
2019-04-05T09:53:57.419Z,25.14
2019-04-05T09:56:28.378Z,25.37
2019-04-05T09:59:00.102Z,23.28
2019-04-05T10:01:32.211Z,25.20
2019-04-05T10:04:04.825Z,24.78
2019-04-05T10:06:36.742Z,24.04
2019-04-05T10:09:09.868Z,24.68
2019-04-05T10:11:41.968Z,24.27
2019-04-05T10:14:14.178Z,24.21
2019-04-05T10:16:46.244Z,23.88
2019-04-05T10:19:18.572Z,24.51
2019-04-05T10:21:50.683Z,24.09
2019-04-05T10:24:22.830Z,24.23
2019-04-05T10:26:54.029Z,23.90
2019-04-05T10:29:26.239Z,21.93
2019-04-05T10:31:57.149Z,24.25
2019-04-05T10:34:29.049Z,22.52
2019-04-05T10:37:01.389Z,23.20
2019-04-05T10:39:32.504Z,23.52
2019-04-05T10:42:04.689Z,20.84
2019-04-05T10:44:36.740Z,21.82
2019-04-05T10:47:08.901Z,23.05
2019-04-05T10:49:40.989Z,22.75
2019-04-05T10:52:13.049Z,23.03
2019-04-05T10:54:45.240Z,22.90
2019-04-05T10:57:16.140Z,22.70
2019-04-05T10:59:48.311Z,21.99
2019-04-05T11:02:20.468Z,22.57
2019-04-05T11:04:51.459Z,22.23
2019-04-05T11:07:23.202Z,20.42
2019-04-05T11:09:54.233Z,21.78
2019-04-05T11:12:26.130Z,20.32
2019-04-05T11:14:58.248Z,22.62
2019-04-05T11:17:30.293Z,22.04
2019-04-05T11:20:06.987Z,22.63
2019-04-05T11:22:36.061Z,21.83
2019-04-05T11:25:08.931Z,22.21
2019-04-05T11:27:41.139Z,21.88
2019-04-05T11:30:15.022Z,21.70
2019-04-05T11:32:47.549Z,21.82
2019-04-05T11:35:19.731Z,21.78
2019-04-05T11:37:54.121Z,22.21
2019-04-05T11:40:25.742Z,22.34
2019-04-05T11:42:59.270Z,21.90
2019-04-05T11:45:33.221Z,21.88
2019-04-05T11:48:06.049Z,21.75
2019-04-05T11:50:38.229Z,21.65
2019-04-05T11:53:10.429Z,21.73
2019-04-05T11:55:42.504Z,21.22
2019-04-05T11:58:14.892Z,21.88
2019-04-05T12:00:51.184Z,22.05
2019-04-05T12:03:23.343Z,22.06
2019-04-05T12:05:55.424Z,22.11
2019-04-05T12:08:28.491Z,22.42
2019-04-05T12:11:01.582Z,21.87
2019-04-05T12:13:33.619Z,21.78
2019-04-05T12:16:07.235Z,21.82
2019-04-05T12:18:39.644Z,21.37
2019-04-05T12:21:10.719Z,21.47
2019-04-05T12:23:43.409Z,19.66
2019-04-05T12:26:15.389Z,21.91
2019-04-05T12:28:47.551Z,21.47
2019-04-05T12:31:20.180Z,21.42
2019-04-05T12:33:52.535Z,21.31
2019-04-05T12:36:24.644Z,21.24
2019-04-05T12:38:56.581Z,21.10
2019-04-05T12:41:27.541Z,21.18
2019-04-05T12:43:59.290Z,18.96
2019-04-05T12:46:31.431Z,21.50
2019-04-05T12:49:06.319Z,22.34
2019-04-05T12:51:37.879Z,21.77
2019-04-05T12:54:10.041Z,21.92
2019-04-05T12:56:42.289Z,21.62
2019-04-05T12:59:14.332Z,21.68
2019-04-05T13:01:46.627Z,21.64
2019-04-05T13:04:20.663Z,20.97
2019-04-05T13:06:53.706Z,21.28
2019-04-05T13:09:25.888Z,21.50
2019-04-05T13:11:58.014Z,21.34
2019-04-05T13:14:30.077Z,20.92
2019-04-05T13:17:02.837Z,21.37
2019-04-05T13:19:36.068Z,21.29
2019-04-05T13:22:08.651Z,21.33
2019-04-05T13:24:40.856Z,20.92
2019-04-05T13:27:13.141Z,21.87
2019-04-05T13:29:45.201Z,21.56
2019-04-05T13:32:19.376Z,22.11
2019-04-05T13:34:51.426Z,22.00
2019-04-05T13:37:23.460Z,21.90
2019-04-05T13:39:55.560Z,21.15
2019-04-05T13:42:31.223Z,22.22
2019-04-05T13:45:01.451Z,22.38
2019-04-05T13:47:37.768Z,22.69
2019-04-05T13:50:11.374Z,22.50
2019-04-05T13:52:43.503Z,22.40
2019-04-05T13:55:15.720Z,22.07
2019-04-05T13:57:47.801Z,22.14
2019-04-05T14:00:23.229Z,22.21
2019-04-05T14:02:58.479Z,21.93
2019-04-05T14:05:30.774Z,22.05
2019-04-05T14:08:10.267Z,22.74
2019-04-05T14:10:36.933Z,23.04
2019-04-05T14:13:09.909Z,23.11
2019-04-05T14:15:43.070Z,22.69
2019-04-05T14:18:15.475Z,23.08
2019-04-05T14:20:50.602Z,23.06
2019-04-05T14:23:25.309Z,23.04
2019-04-05T14:26:03.110Z,23.18
2019-04-05T14:28:35.282Z,23.18
2019-04-05T14:31:07.445Z,23.27
2019-04-05T14:33:39.732Z,23.51
2019-04-05T14:36:13.822Z,23.61
2019-04-05T14:38:46.059Z,23.63
2019-04-05T14:41:44.741Z,23.88
2019-04-05T14:44:22.621Z,24.15
2019-04-05T14:46:55.869Z,24.31
2019-04-05T14:49:30.700Z,24.72
2019-04-05T14:52:02.522Z,24.68
2019-04-05T14:54:34.689Z,24.85
2019-04-05T14:57:07.129Z,24.85
2019-04-05T14:59:39.889Z,24.90
2019-04-05T15:02:13.129Z,25.17
2019-04-05T15:04:49.426Z,25.35
2019-04-05T15:07:21.579Z,25.50
2019-04-05T15:09:55.520Z,25.07
2019-04-05T15:12:29.182Z,25.57
2019-04-05T15:15:01.109Z,26.13
2019-04-05T15:17:47.176Z,26.25
2019-04-05T15:20:11.039Z,26.45
2019-04-05T15:22:44.081Z,26.56
2019-04-05T15:25:17.493Z,26.66
2019-04-05T15:27:55.147Z,26.70
2019-04-05T15:30:26.448Z,26.99
2019-04-05T15:32:59.710Z,27.40
2019-04-05T15:35:31.841Z,27.47
2019-04-05T15:38:04.269Z,27.61
2019-04-05T15:40:36.764Z,27.69
2019-04-05T15:43:09.931Z,27.97
2019-04-05T15:45:46.772Z,28.01
2019-04-05T15:48:20.489Z,27.96
2019-04-05T15:50:55.898Z,28.13
2019-04-05T15:53:26.648Z,28.49
2019-04-05T15:55:59.090Z,28.68
2019-04-05T15:58:34.166Z,28.73
2019-04-05T16:01:06.371Z,29.28
2019-04-05T16:03:38.911Z,29.49
2019-04-05T16:06:11.068Z,29.26
2019-04-05T16:08:42.141Z,29.62
2019-04-05T16:11:13.989Z,29.92
2019-04-05T16:13:45.061Z,29.94
2019-04-05T16:16:17.171Z,30.41
2019-04-05T16:18:49.249Z,30.48
2019-04-05T16:21:20.349Z,30.61
2019-04-05T16:23:52.490Z,31.21
2019-04-05T16:26:24.600Z,31.06
2019-04-05T16:28:55.819Z,31.37
2019-04-05T16:31:28.848Z,32.44
2019-04-05T16:34:01.019Z,31.71
2019-04-05T16:36:32.109Z,31.91
2019-04-05T16:39:06.209Z,32.71
2019-04-05T16:41:40.011Z,32.21
2019-04-05T16:44:11.169Z,32.15
2019-04-05T16:46:43.172Z,33.28
2019-04-05T16:49:15.679Z,32.38
2019-04-05T16:51:47.893Z,32.86
2019-04-05T16:54:19.079Z,32.89
2019-04-05T16:56:51.169Z,34.82
2019-04-05T16:59:24.364Z,33.39
2019-04-05T17:04:17.076Z,35.03
2019-04-05T17:06:48.289Z,33.82
2019-04-05T17:09:20.299Z,35.70
2019-04-05T17:11:52.259Z,34.18
2019-04-05T17:14:40.408Z,34.53
2019-04-05T17:17:12.719Z,34.72
2019-04-05T17:19:49.662Z,34.83
2019-04-05T17:22:21.895Z,35.09
2019-04-05T17:24:54.089Z,35.29
2019-04-05T17:27:26.041Z,35.50
2019-04-05T17:29:58.299Z,35.31
2019-04-05T17:32:31.789Z,35.44
2019-04-05T17:35:04.083Z,35.75
2019-04-05T17:37:36.403Z,35.61
2019-04-05T17:40:09.189Z,35.82
2019-04-05T17:42:42.589Z,35.94
2019-04-05T17:45:14.808Z,36.19
2019-04-05T17:47:45.759Z,36.42
2019-04-05T17:50:29.860Z,38.69
2019-04-05T17:53:12.110Z,36.67
2019-04-05T17:55:38.471Z,36.85
2019-04-05T17:58:10.992Z,37.00
2019-04-05T18:00:44.560Z,37.23
2019-04-05T18:03:17.672Z,37.26
2019-04-05T18:05:50.501Z,37.37
2019-04-05T18:08:22.801Z,37.45
2019-04-05T18:10:55.120Z,37.73
2019-04-05T18:13:26.139Z,37.97
2019-04-05T18:15:58.284Z,40.39
2019-04-05T18:18:29.409Z,38.12
2019-04-05T18:21:03.668Z,40.67
2019-04-05T18:23:35.699Z,38.15
2019-04-05T18:26:07.735Z,38.26
2019-04-05T18:28:39.810Z,38.56
2019-04-05T18:31:11.791Z,38.59
2019-04-05T18:33:44.241Z,38.70
2019-04-05T18:36:16.391Z,38.68
2019-04-05T18:38:49.828Z,38.93
2019-04-05T18:41:22.813Z,38.90
2019-04-05T18:43:55.765Z,39.03
2019-04-05T18:46:27.921Z,39.13
2019-04-05T18:49:06.681Z,39.48
2019-04-05T18:51:38.901Z,39.10
2019-04-05T18:54:09.979Z,39.31
2019-04-05T18:56:41.859Z,41.92
2019-04-05T18:59:13.834Z,39.35
2019-04-05T19:01:46.041Z,39.42
2019-04-05T19:04:17.199Z,39.81
2019-04-05T19:06:49.088Z,42.01
2019-04-05T19:09:21.050Z,39.41
2019-04-05T19:11:53.031Z,39.53
2019-04-05T19:14:25.024Z,39.80
2019-04-05T19:16:59.209Z,39.80
2019-04-05T19:19:30.792Z,40.06
2019-04-05T19:22:01.859Z,40.30
2019-04-05T19:24:33.804Z,42.89
2019-04-05T19:27:06.129Z,40.46
2019-04-05T19:29:37.290Z,40.68
2019-04-05T19:50:12.588Z,41.91
2019-04-05T19:52:44.661Z,41.61
2019-04-05T19:55:17.909Z,41.81
2019-04-05T19:57:50.210Z,41.66
2019-04-05T20:00:22.369Z,41.66
2019-04-05T20:02:54.989Z,41.74
2019-04-05T20:05:27.351Z,42.08
2019-04-05T20:07:58.429Z,42.05
2019-04-05T20:10:30.279Z,44.40
2019-04-05T20:13:02.355Z,42.02
2019-04-05T20:15:34.499Z,42.06
2019-04-05T20:18:06.481Z,42.14
2019-04-05T20:20:38.691Z,42.04
2019-04-05T20:23:09.857Z,42.10
2019-04-05T20:25:42.048Z,44.13
2019-04-05T20:28:15.761Z,42.02
2019-04-05T20:30:48.972Z,42.09
2019-04-05T20:33:21.888Z,42.44
2019-04-05T20:35:54.188Z,42.63
2019-04-05T20:38:25.180Z,42.55
2019-04-05T20:40:57.230Z,44.87
2019-04-05T20:43:29.299Z,42.42
2019-04-05T20:46:01.259Z,42.37
2019-04-05T20:48:34.180Z,42.34
2019-04-05T20:51:06.387Z,42.27
2019-04-05T20:53:38.949Z,42.32
2019-04-05T20:56:11.100Z,42.47
2019-04-05T20:58:42.319Z,42.39
2019-04-05T21:01:14.129Z,44.07
2019-04-05T21:03:46.229Z,42.17
2019-04-05T21:06:18.252Z,42.64
2019-04-05T21:08:50.254Z,42.80
2019-04-05T21:11:22.298Z,43.42
2019-04-05T21:13:54.328Z,42.62
2019-04-05T21:16:26.408Z,42.69
2019-04-05T21:18:58.381Z,42.96
2019-04-05T21:21:30.478Z,42.83
2019-04-05T21:24:02.859Z,43.01
2019-04-05T21:26:35.027Z,43.13
2019-04-05T21:29:07.038Z,43.01
2019-04-05T21:31:39.124Z,42.98
2019-04-05T21:34:10.449Z,42.80
2019-04-05T21:36:42.313Z,45.55
2019-04-05T21:39:14.388Z,43.01
2019-04-05T21:41:46.328Z,42.93
2019-04-05T21:44:17.549Z,42.98
2019-04-05T21:46:49.268Z,44.98
2019-04-05T21:49:21.351Z,43.10
2019-04-05T21:51:53.271Z,43.12
2019-04-05T21:54:25.368Z,43.26
2019-04-05T21:56:57.340Z,43.23
2019-04-05T21:59:29.261Z,43.29
2019-04-05T22:02:01.519Z,43.34
2019-04-05T22:04:32.570Z,43.28
2019-04-05T22:07:04.391Z,44.86
2019-04-05T22:09:36.713Z,43.18
2019-04-05T22:12:08.745Z,43.34
2019-04-05T22:14:40.729Z,43.40
2019-04-05T22:17:12.693Z,43.44
2019-04-05T22:19:44.575Z,43.57
2019-04-05T22:22:16.562Z,43.62
2019-04-05T22:24:58.745Z,43.67
2019-04-05T22:27:23.248Z,43.87
2019-04-05T22:29:55.721Z,43.72
2019-04-05T22:32:27.749Z,43.85
2019-04-05T22:34:59.818Z,43.94
2019-04-05T22:37:32.249Z,43.77
2019-04-05T22:40:04.348Z,43.84
2019-04-05T22:42:36.374Z,44.00
2019-04-05T22:45:08.973Z,44.00
2019-04-05T22:47:40.981Z,43.94
2019-04-05T22:50:13.750Z,44.06
2019-04-05T22:52:46.821Z,44.13
2019-04-05T22:55:19.761Z,44.17
2019-04-05T22:57:51.771Z,44.21
2019-04-05T23:00:23.800Z,44.41
2019-04-05T23:02:55.890Z,44.46
2019-04-05T23:05:28.921Z,44.50
2019-04-05T23:08:00.951Z,44.67
2019-04-05T23:10:32.880Z,44.78
2019-04-05T23:13:04.801Z,44.88
2019-04-05T23:15:36.823Z,45.04
2019-04-05T23:18:08.871Z,45.11
2019-04-05T23:20:40.961Z,45.27
2019-04-05T23:23:13.848Z,45.56
2019-04-05T23:25:45.863Z,45.47
2019-04-05T23:28:17.862Z,45.58
2019-04-05T23:30:50.041Z,45.81
2019-04-05T23:33:21.941Z,45.85
2019-04-05T23:35:53.960Z,45.93
2019-04-05T23:38:26.101Z,46.11
2019-04-05T23:40:58.161Z,46.10
2019-04-05T23:43:30.102Z,46.37
2019-04-05T23:46:02.281Z,46.23
2019-04-05T23:48:34.240Z,46.42
2019-04-05T23:51:06.260Z,46.51
2019-04-05T23:53:38.181Z,46.56
2019-04-05T23:56:10.196Z,46.79
2019-04-05T23:58:42.087Z,46.74
